Time;durP1;ratioP1;P1;durP2;ratioP2;P2;SDS_P1;SDS_P2;PMS_P1;PMS_P2;Temp;Humidity;BMP_temperature;BMP_pressure;BME280_temperature;BME280_humidity;BME280_pressure;Samples;Min_cycle;Max_cycle;Signal;HPM_P1;HPM_P2
2022/12/21 00:00:20;;;;;;;8.77;6.85;;;12.70;78.60;;;;;;5058634;28;20028;-84
2022/12/21 00:02:45;;;;;;;8.50;6.70;;;12.70;78.60;;;;;;5058663;28;20032;-84
2022/12/21 00:05:12;;;;;;;8.13;7.03;;;12.70;78.60;;;;;;5041844;28;20035;-84
2022/12/21 00:07:38;;;;;;;8.25;6.65;;;12.70;78.60;;;;;;5075156;28;20494;-84
2022/12/21 00:10:04;;;;;;;8.25;6.40;;;12.70;78.50;;;;;;5041838;28;20032;-85
2022/12/21 00:12:29;;;;;;;7.93;6.00;;;12.70;78.50;;;;;;5042723;28;20036;-84
2022/12/21 00:14:55;;;;;;;9.15;7.15;;;12.60;78.50;;;;;;5059021;28;20024;-85
2022/12/21 00:17:21;;;;;;;9.20;7.35;;;12.70;78.60;;;;;;5043998;28;20032;-84
2022/12/21 00:19:47;;;;;;;8.60;6.82;;;12.60;78.50;;;;;;5061870;28;20116;-85
2022/12/21 00:22:12;;;;;;;8.50;6.60;;;12.60;78.60;;;;;;5076430;28;20033;-85
2022/12/21 00:24:38;;;;;;;9.48;7.38;;;12.60;78.50;;;;;;5076293;28;20108;-85
2022/12/21 00:27:04;;;;;;;8.60;6.82;;;12.60;78.60;;;;;;5078703;28;20049;-84
2022/12/21 00:29:29;;;;;;;8.90;7.15;;;12.60;78.60;;;;;;5059138;28;20041;-85
2022/12/21 00:31:55;;;;;;;8.98;6.45;;;12.60;78.60;;;;;;5042050;28;20124;-84
2022/12/21 00:34:23;;;;;;;8.60;6.72;;;12.60;78.60;;;;;;5057575;28;20041;-85
2022/12/21 00:36:51;;;;;;;8.80;6.80;;;12.60;78.60;;;;;;5042738;28;20024;-84
2022/12/21 00:39:17;;;;;;;8.48;6.72;;;12.60;78.60;;;;;;5059203;28;20508;-84
2022/12/21 00:41:44;;;;;;;8.98;6.63;;;12.60;78.60;;;;;;5041625;28;20063;-84
2022/12/21 00:44:13;;;;;;;9.43;7.65;;;12.60;78.70;;;;;;5073786;28;20028;-84
2022/12/21 00:46:38;;;;;;;9.05;7.18;;;12.60;78.70;;;;;;5073996;28;20032;-84
2022/12/21 00:49:07;;;;;;;8.90;7.20;;;12.60;78.70;;;;;;5057023;28;20047;-84
2022/12/21 00:51:34;;;;;;;9.80;7.22;;;12.50;78.60;;;;;;5056590;28;20028;-84
2022/12/21 00:54:01;;;;;;;9.80;7.47;;;12.60;78.70;;;;;;5073795;28;20043;-85
2022/12/21 00:56:27;;;;;;;9.25;7.75;;;12.50;78.60;;;;;;5075119;28;20111;-85
2022/12/21 00:58:54;;;;;;;9.07;6.85;;;12.50;78.60;;;;;;5075695;28;20041;-84
2022/12/21 01:01:22;;;;;;;9.80;7.45;;;12.50;78.60;;;;;;5073341;28;20029;-85
2022/12/21 01:03:49;;;;;;;8.45;7.15;;;12.50;78.70;;;;;;5056560;28;20029;-85
2022/12/21 01:06:17;;;;;;;9.05;7.18;;;12.50;78.70;;;;;;5056792;28;20086;-85
2022/12/21 01:08:43;;;;;;;9.35;6.47;;;12.50;78.70;;;;;;5056515;28;20051;-84
2022/12/21 01:11:11;;;;;;;9.05;6.85;;;12.50;78.60;;;;;;5073331;28;20025;-84
2022/12/21 01:13:39;;;;;;;8.00;6.22;;;12.50;78.70;;;;;;5073243;28;20017;-85
2022/12/21 01:16:12;;;;;;;8.30;6.53;;;12.50;78.70;;;;;;5040205;28;20465;-84
2022/12/21 01:18:38;;;;;;;8.10;6.10;;;12.50;78.70;;;;;;5040862;28;20029;-85
2022/12/21 01:21:03;;;;;;;8.57;6.55;;;12.50;78.60;;;;;;5060608;28;20036;-84
2022/12/21 01:23:29;;;;;;;8.43;6.95;;;12.50;78.60;;;;;;5077489;28;20024;-85
2022/12/21 01:25:55;;;;;;;9.02;7.00;;;12.50;78.60;;;;;;5076965;28;20389;-84
2022/12/21 01:28:21;;;;;;;9.95;7.57;;;12.40;78.60;;;;;;5043848;28;20079;-85
2022/12/21 01:30:47;;;;;;;8.82;6.80;;;12.50;78.70;;;;;;5043963;28;20036;-84
2022/12/21 01:33:15;;;;;;;8.75;6.50;;;12.50;78.70;;;;;;5077211;28;20580;-85
2022/12/21 01:35:42;;;;;;;8.88;7.10;;;12.40;78.60;;;;;;5077130;28;20044;-85
2022/12/21 01:38:08;;;;;;;9.10;6.50;;;12.40;78.60;;;;;;5076443;28;20032;-84
2022/12/21 01:40:34;;;;;;;8.38;6.47;;;12.40;78.60;;;;;;5060437;28;20123;-85
2022/12/21 01:43:00;;;;;;;8.98;6.97;;;12.40;78.60;;;;;;5044261;28;20489;-84
2022/12/21 01:45:31;;;;;;;9.30;7.22;;;12.40;78.60;;;;;;5060384;28;20037;-84
2022/12/21 01:48:03;;;;;;;9.07;6.90;;;12.40;78.60;;;;;;5077775;28;20035;-85
2022/12/21 01:50:55;;;;;;;8.82;6.72;;;12.40;78.60;;;;;;5077790;28;20036;-85
2022/12/21 01:53:27;;;;;;;9.02;6.60;;;12.40;78.70;;;;;;5060115;28;20473;-88
2022/12/21 01:55:55;;;;;;;8.68;6.63;;;12.40;78.60;;;;;;5043250;28;20119;-89
2022/12/21 01:58:26;;;;;;;8.52;6.18;;;12.40;78.60;;;;;;5059780;28;20037;-87
2022/12/21 02:00:52;;;;;;;8.70;6.60;;;12.40;78.60;;;;;;5060586;28;20090;-87
2022/12/21 02:03:22;;;;;;;9.25;6.97;;;12.40;78.60;;;;;;5059621;28;20032;-87
2022/12/21 02:06:10;;;;;;;8.32;6.32;;;12.40;78.60;;;;;;5060068;28;20033;-87
2022/12/21 02:08:37;;;;;;;7.60;6.40;;;12.40;78.60;;;;;;5059856;28;20028;-86
2022/12/21 02:11:05;;;;;;;9.27;6.68;;;12.40;78.60;;;;;;5059508;28;20063;-87
2022/12/21 02:13:31;;;;;;;8.38;6.45;;;12.40;78.60;;;;;;5059129;28;20032;-87
2022/12/21 02:16:00;;;;;;;8.02;6.32;;;12.40;78.60;;;;;;5059627;28;20024;-86
2022/12/21 02:18:26;;;;;;;8.02;6.10;;;12.40;78.60;;;;;;5059624;28;20037;-87
2022/12/21 02:21:13;;;;;;;8.90;6.70;;;12.40;78.60;;;;;;5060750;28;20056;-86
2022/12/21 02:24:02;;;;;;;8.55;6.35;;;12.30;78.60;;;;;;5043183;28;20032;-89
2022/12/21 02:26:42;;;;;;;8.18;6.10;;;12.30;78.50;;;;;;5047483;28;20045;-89
2022/12/21 02:29:10;;;;;;;8.50;6.45;;;12.30;78.60;;;;;;5055637;28;20474;-89
2022/12/21 02:32:01;;;;;;;9.10;6.70;;;12.30;78.60;;;;;;5038416;28;20036;-87
2022/12/21 02:35:14;;;;;;;7.78;5.63;;;12.30;78.60;;;;;;5056248;28;20025;-89
2022/12/21 02:37:46;;;;;;;7.68;6.03;;;12.30;78.70;;;;;;5019059;28;20044;-88
2022/12/21 02:40:27;;;;;;;10.32;5.90;;;12.30;78.50;;;;;;5072613;28;20470;-87
2022/12/21 02:46:19;;;;;;;7.28;5.63;;;12.30;78.60;;;;;;5055618;28;20033;-87
2022/12/21 02:48:52;;;;;;;8.27;6.25;;;12.20;78.50;;;;;;5055872;28;20492;-88
2022/12/21 02:51:39;;;;;;;8.85;6.68;;;12.20;78.50;;;;;;5039087;28;20044;-89
2022/12/21 02:54:08;;;;;;;7.93;6.07;;;12.20;78.50;;;;;;5040354;28;20029;-89
2022/12/21 02:56:34;;;;;;;8.60;6.65;;;12.20;78.50;;;;;;5041650;28;20465;-89
2022/12/21 02:59:00;;;;;;;9.05;6.68;;;12.20;78.50;;;;;;5039528;28;20033;-88
2022/12/21 03:01:54;;;;;;;9.20;6.95;;;12.20;78.60;;;;;;5072533;28;20031;-88
2022/12/21 03:04:43;;;;;;;8.85;6.88;;;12.20;78.60;;;;;;5055415;28;20029;-89
2022/12/21 03:07:47;;;;;;;8.93;6.82;;;12.20;78.50;;;;;;5038425;28;20045;-89
2022/12/21 03:10:48;;;;;;;8.30;6.30;;;12.20;78.60;;;;;;5039536;28;20166;-89
2022/12/21 03:13:39;;;;;;;8.27;6.18;;;12.20;78.60;;;;;;5039398;28;20053;-87
2022/12/21 03:16:28;;;;;;;8.73;6.22;;;12.20;78.60;;;;;;5039254;28;20359;-87
2022/12/21 03:19:37;;;;;;;8.60;6.65;;;12.10;78.50;;;;;;5072190;28;20438;-87
2022/12/21 03:22:22;;;;;;;8.35;6.38;;;12.20;78.60;;;;;;5001454;28;20033;-89
2022/12/21 03:25:12;;;;;;;8.43;6.07;;;12.20;78.60;;;;;;5034930;28;20045;-89
2022/12/21 03:27:44;;;;;;;7.95;5.70;;;12.10;78.50;;;;;;5046562;28;20047;-90
2022/12/21 03:30:14;;;;;;;8.10;5.93;;;12.10;78.50;;;;;;5039673;28;20029;-90
2022/12/21 03:33:15;;;;;;;9.60;6.85;;;12.10;78.50;;;;;;5055458;28;20025;-90
2022/12/21 03:36:08;;;;;;;8.70;6.35;;;12.10;78.60;;;;;;5064783;28;20131;-86
2022/12/21 03:38:48;;;;;;;8.43;6.18;;;12.10;78.50;;;;;;5050228;28;20088;-88
2022/12/21 03:41:29;;;;;;;8.65;6.57;;;12.10;78.50;;;;;;5071694;28;20061;-88
2022/12/21 03:44:00;;;;;;;8.80;6.28;;;12.10;78.50;;;;;;5038639;28;20033;-88
2022/12/21 03:46:31;;;;;;;9.07;6.55;;;12.10;78.50;;;;;;5054858;28;20060;-87
2022/12/21 03:49:18;;;;;;;9.60;6.68;;;12.10;78.50;;;;;;5054898;28;20036;-89
2022/12/21 03:51:53;;;;;;;8.52;6.53;;;12.00;78.50;;;;;;5040136;28;20033;-90
2022/12/21 03:55:03;;;;;;;8.63;6.25;;;12.10;78.50;;;;;;5041635;28;20035;-89
2022/12/21 03:57:30;;;;;;;8.20;5.95;;;12.10;78.60;;;;;;5017799;28;20033;-89
2022/12/21 04:00:00;;;;;;;8.98;6.55;;;12.00;78.50;;;;;;5062785;28;20052;-90
2022/12/21 04:02:36;;;;;;;8.88;6.70;;;12.00;78.50;;;;;;5054465;28;20139;-90
2022/12/21 04:05:35;;;;;;;7.95;6.25;;;12.00;78.60;;;;;;5071313;28;20095;-89
2022/12/21 04:08:02;;;;;;;7.90;6.18;;;12.00;78.60;;;;;;5053773;28;20111;-89
2022/12/21 04:10:28;;;;;;;9.00;6.68;;;12.00;78.50;;;;;;5054127;28;20053;-90
2022/12/21 04:12:53;;;;;;;9.10;6.63;;;12.00;78.50;;;;;;5020896;28;20052;-89
2022/12/21 04:18:09;;;;;;;8.82;6.40;;;12.00;78.50;;;;;;5054053;28;20072;-89
2022/12/21 04:20:34;;;;;;;9.85;7.45;;;12.00;78.50;;;;;;5053972;28;20013;-88
2022/12/21 04:28:31;;;;;;;9.67;6.83;;;12.00;78.50;;;;;;5057621;28;20048;-88
2022/12/21 04:30:58;;;;;;;8.80;6.20;;;11.90;78.50;;;;;;5040545;28;20313;-88
2022/12/21 04:33:25;;;;;;;8.45;6.40;;;11.90;78.50;;;;;;5057032;28;20058;-88
2022/12/21 04:38:39;;;;;;;8.25;5.93;;;11.90;78.50;;;;;;5073703;28;20074;-88
2022/12/21 04:41:05;;;;;;;8.43;6.53;;;11.90;78.50;;;;;;5057113;28;20028;-87
2022/12/21 04:43:34;;;;;;;9.00;6.57;;;11.90;78.50;;;;;;5056740;28;20024;-88
2022/12/21 04:46:02;;;;;;;9.30;7.13;;;11.90;78.60;;;;;;5073602;28;20028;-88
2022/12/21 04:48:28;;;;;;;9.45;7.00;;;11.90;78.60;;;;;;5073534;28;20044;-88
2022/12/21 04:50:54;;;;;;;10.15;7.15;;;11.80;78.50;;;;;;5073718;28;20119;-88
2022/12/21 04:53:20;;;;;;;8.18;6.35;;;11.90;78.60;;;;;;5056277;28;20025;-89
2022/12/21 04:55:46;;;;;;;9.80;7.30;;;11.90;78.50;;;;;;5056720;28;20090;-88
2022/12/21 04:58:12;;;;;;;9.40;6.95;;;11.90;78.60;;;;;;5057338;28;20040;-88
2022/12/21 05:00:37;;;;;;;7.78;6.00;;;11.90;78.60;;;;;;5040391;28;20126;-88
2022/12/21 05:03:03;;;;;;;9.88;7.55;;;11.80;78.50;;;;;;5065626;28;20036;-87
2022/12/21 05:05:30;;;;;;;9.10;6.43;;;11.90;78.60;;;;;;5062263;28;20123;-87
2022/12/21 05:07:56;;;;;;;8.70;6.38;;;11.90;78.60;;;;;;5055858;28;20071;-87
2022/12/21 05:10:22;;;;;;;8.35;6.43;;;11.90;78.60;;;;;;5040166;28;20028;-88
2022/12/21 05:12:48;;;;;;;9.60;6.72;;;11.80;78.50;;;;;;5061001;28;20039;-88
2022/12/21 05:15:13;;;;;;;8.70;6.40;;;11.80;78.50;;;;;;5062750;28;20031;-88
2022/12/21 05:17:45;;;;;;;8.77;6.05;;;11.80;78.50;;;;;;5056714;28;20384;-87
2022/12/21 05:20:11;;;;;;;7.95;6.15;;;11.80;78.60;;;;;;5056083;28;20110;-88
2022/12/21 05:22:37;;;;;;;9.25;6.70;;;11.80;78.50;;;;;;5074375;28;20048;-89
2022/12/21 05:25:03;;;;;;;8.77;6.10;;;11.80;78.50;;;;;;5056595;28;20035;-88
2022/12/21 05:27:29;;;;;;;8.57;6.22;;;11.80;78.50;;;;;;5056208;28;20063;-87
2022/12/21 05:29:55;;;;;;;9.20;6.53;;;11.80;78.50;;;;;;5056230;28;20039;-91
2022/12/21 05:32:20;;;;;;;8.57;6.38;;;11.80;78.60;;;;;;5072989;28;20119;-89
2022/12/21 05:34:46;;;;;;;9.15;6.10;;;11.80;78.60;;;;;;5072796;28;20027;-88
2022/12/21 05:37:12;;;;;;;8.90;6.30;;;11.80;78.60;;;;;;5039609;28;20032;-88
2022/12/21 05:39:38;;;;;;;9.32;6.60;;;11.80;78.60;;;;;;5056343;28;20060;-90
2022/12/21 05:42:03;;;;;;;9.85;7.05;;;11.80;78.50;;;;;;5056903;28;20036;-87
2022/12/21 05:44:29;;;;;;;9.50;6.80;;;11.80;78.60;;;;;;5056656;28;20032;-86
2022/12/21 05:46:55;;;;;;;9.23;6.78;;;11.80;78.60;;;;;;5056737;28;20036;-87
2022/12/21 05:49:21;;;;;;;9.65;6.95;;;11.80;78.60;;;;;;5040079;28;20039;-93
2022/12/21 05:51:48;;;;;;;8.93;6.43;;;11.80;78.60;;;;;;5039364;28;20039;-88
2022/12/21 05:54:15;;;;;;;8.77;6.43;;;11.80;78.60;;;;;;5073210;28;20488;-88
2022/12/21 05:56:41;;;;;;;9.68;7.43;;;11.80;78.60;;;;;;5056480;28;20035;-88
2022/12/21 05:59:07;;;;;;;9.45;6.95;;;11.80;78.60;;;;;;5056551;28;20059;-86
2022/12/21 06:01:33;;;;;;;8.77;6.82;;;11.70;78.60;;;;;;5073223;28;20032;-88
2022/12/21 06:03:59;;;;;;;9.15;6.70;;;11.70;78.60;;;;;;5073931;28;20025;-88
2022/12/21 06:06:25;;;;;;;8.88;6.82;;;11.70;78.60;;;;;;5074684;28;20388;-89
2022/12/21 06:08:51;;;;;;;10.35;7.18;;;11.70;78.60;;;;;;5042863;28;20044;-89
2022/12/21 06:11:19;;;;;;;8.15;6.10;;;11.70;78.60;;;;;;5076561;28;20017;-91
2022/12/21 06:13:46;;;;;;;8.85;6.55;;;11.70;78.60;;;;;;5060006;28;20029;-90
2022/12/21 06:16:23;;;;;;;9.88;7.15;;;11.70;78.60;;;;;;5082901;28;20020;-88
2022/12/21 06:18:50;;;;;;;9.13;6.82;;;11.70;78.70;;;;;;5051941;28;20040;-86
2022/12/21 06:21:19;;;;;;;9.80;7.03;;;11.70;78.60;;;;;;5080741;28;20169;-87
2022/12/21 06:23:47;;;;;;;8.95;6.53;;;11.70;78.60;;;;;;5064155;28;20109;-86
2022/12/21 06:26:15;;;;;;;9.15;6.75;;;11.70;78.60;;;;;;5045783;28;20044;-89
2022/12/21 06:28:45;;;;;;;9.32;6.97;;;11.70;78.60;;;;;;5059755;28;20056;-87
2022/12/21 06:31:13;;;;;;;10.15;7.07;;;11.60;78.60;;;;;;5042683;28;20028;-89
2022/12/21 06:33:39;;;;;;;9.45;6.90;;;11.70;78.70;;;;;;5042898;28;20518;-89
2022/12/21 06:36:09;;;;;;;9.32;6.70;;;11.70;78.70;;;;;;5059545;28;20078;-89
2022/12/21 06:38:35;;;;;;;8.98;6.68;;;11.70;78.70;;;;;;5058868;28;20036;-87
2022/12/21 06:41:07;;;;;;;9.23;6.82;;;11.60;78.70;;;;;;5059392;28;20130;-89
2022/12/21 06:43:35;;;;;;;9.18;6.30;;;11.60;78.70;;;;;;5059566;28;20054;-88
2022/12/21 06:46:04;;;;;;;9.57;6.95;;;11.60;78.70;;;;;;5059384;28;20094;-89
2022/12/21 06:48:32;;;;;;;9.02;6.38;;;11.60;78.70;;;;;;5059161;28;20032;-89
2022/12/21 06:50:59;;;;;;;8.48;6.28;;;11.60;78.70;;;;;;5058944;28;20024;-90
2022/12/21 06:53:29;;;;;;;8.95;6.32;;;11.60;78.70;;;;;;5059487;28;20056;-88
2022/12/21 06:56:07;;;;;;;9.48;6.75;;;11.60;78.70;;;;;;5042124;28;20028;-88
2022/12/21 06:58:34;;;;;;;10.32;6.97;;;11.60;78.70;;;;;;5058908;28;20036;-89
2022/12/21 07:01:05;;;;;;;9.18;6.85;;;11.60;78.70;;;;;;5058651;28;20036;-88
2022/12/21 07:03:31;;;;;;;9.50;6.90;;;11.50;78.70;;;;;;5042289;28;20054;-89
2022/12/21 07:05:57;;;;;;;9.35;6.85;;;11.50;78.70;;;;;;5075489;28;20103;-89
2022/12/21 07:08:23;;;;;;;9.05;6.38;;;11.50;78.70;;;;;;5059930;28;20037;-87
2022/12/21 07:10:48;;;;;;;8.25;6.38;;;11.50;78.70;;;;;;5065537;28;20025;-89
2022/12/21 07:13:14;;;;;;;9.48;7.03;;;11.50;79.00;;;;;;5045043;28;20028;-88
2022/12/21 07:15:40;;;;;;;9.65;6.93;;;11.50;78.60;;;;;;5075877;28;20120;-87
2022/12/21 07:18:06;;;;;;;9.65;6.82;;;11.50;78.60;;;;;;5041306;28;20143;-87
2022/12/21 07:20:32;;;;;;;9.32;6.97;;;11.50;78.60;;;;;;5041916;28;20028;-89
2022/12/21 07:22:58;;;;;;;10.88;7.63;;;11.50;78.60;;;;;;5058450;28;20127;-88
2022/12/21 07:25:23;;;;;;;9.90;7.10;;;11.50;78.60;;;;;;5076073;28;20036;-88
2022/12/21 07:27:49;;;;;;;10.20;7.30;;;11.50;78.60;;;;;;5041713;28;20560;-86
2022/12/21 07:30:15;;;;;;;10.98;7.80;;;11.50;78.60;;;;;;5058663;28;20032;-88
2022/12/21 07:32:41;;;;;;;9.68;7.20;;;11.40;78.50;;;;;;5058317;28;20056;-88
2022/12/21 07:35:07;;;;;;;9.20;6.85;;;11.40;78.60;;;;;;5042286;28;20385;-89
2022/12/21 07:37:34;;;;;;;10.55;7.60;;;11.40;78.60;;;;;;5058181;28;20037;-88
2022/12/21 07:40:00;;;;;;;10.43;7.75;;;11.40;78.60;;;;;;5058141;28;20040;-89
2022/12/21 07:42:26;;;;;;;10.70;8.10;;;11.40;78.60;;;;;;5075715;28;20032;-89
2022/12/21 07:45:26;;;;;;;9.30;6.70;;;11.40;78.60;;;;;;5065178;28;20029;-89
2022/12/21 07:47:56;;;;;;;9.80;7.45;;;11.40;78.60;;;;;;5074955;28;20029;-89
2022/12/21 07:50:21;;;;;;;9.98;7.25;;;11.40;78.60;;;;;;5058431;28;20028;-89
2022/12/21 07:52:47;;;;;;;10.27;7.15;;;11.40;78.60;;;;;;5057789;28;20078;-88
2022/12/21 07:55:13;;;;;;;9.82;7.07;;;11.40;78.60;;;;;;5057715;28;20056;-89
2022/12/21 07:57:39;;;;;;;9.35;7.25;;;11.40;78.60;;;;;;5057816;28;20098;-88
2022/12/21 08:00:05;;;;;;;10.00;7.40;;;11.30;78.60;;;;;;5074435;28;20067;-87
2022/12/21 08:02:38;;;;;;;9.13;7.03;;;11.40;78.70;;;;;;5074271;28;20051;-89
2022/12/21 08:05:04;;;;;;;10.73;8.02;;;11.30;78.60;;;;;;5074810;28;20486;-89
2022/12/21 08:07:29;;;;;;;9.60;7.47;;;11.30;78.60;;;;;;5075196;28;20082;-88
2022/12/21 08:09:55;;;;;;;10.73;7.80;;;11.30;78.60;;;;;;5057439;28;20028;-89
2022/12/21 08:12:21;;;;;;;11.27;8.48;;;11.30;78.60;;;;;;5060849;28;20039;-88
2022/12/21 08:14:47;;;;;;;10.02;7.20;;;11.30;78.60;;;;;;5068343;28;20036;-89
2022/12/21 08:17:12;;;;;;;10.73;7.47;;;11.30;78.60;;;;;;5075331;28;20074;-87
2022/12/21 08:19:38;;;;;;;10.07;6.85;;;11.30;78.60;;;;;;5074098;28;20083;-89
2022/12/21 08:22:04;;;;;;;10.75;8.10;;;11.30;78.60;;;;;;5074620;28;20037;-89
2022/12/21 08:24:30;;;;;;;10.32;7.78;;;11.30;78.60;;;;;;5057320;28;20024;-90
2022/12/21 08:26:56;;;;;;;11.07;7.38;;;11.30;78.60;;;;;;5073582;28;20029;-90
2022/12/21 08:29:22;;;;;;;10.05;7.82;;;11.30;78.50;;;;;;5073518;28;20036;-88
2022/12/21 08:31:47;;;;;;;10.13;7.78;;;11.30;78.60;;;;;;5073923;28;20115;-87
2022/12/21 08:34:13;;;;;;;10.25;7.32;;;11.30;78.50;;;;;;5074850;28;20040;-89
2022/12/21 08:36:40;;;;;;;9.50;7.10;;;11.20;78.50;;;;;;5040617;28;20129;-88
2022/12/21 08:39:06;;;;;;;10.35;7.57;;;11.30;78.60;;;;;;5074568;28;20507;-91
2022/12/21 08:41:31;;;;;;;9.60;7.30;;;11.30;78.60;;;;;;5057402;28;20032;-92
2022/12/21 08:43:57;;;;;;;10.18;7.65;;;11.20;78.60;;;;;;5057992;28;20043;-90
2022/12/21 08:46:23;;;;;;;10.48;7.63;;;11.30;78.60;;;;;;5042700;28;20044;-91
2022/12/21 08:48:49;;;;;;;9.45;6.80;;;11.20;78.60;;;;;;5082293;28;20035;-87
2022/12/21 08:51:15;;;;;;;9.07;6.80;;;11.20;78.60;;;;;;5082329;28;20427;-86
2022/12/21 08:53:41;;;;;;;8.82;6.68;;;11.20;78.60;;;;;;5059809;28;20043;-89
2022/12/21 08:56:07;;;;;;;9.55;6.93;;;11.20;78.60;;;;;;5057340;28;20033;-89
2022/12/21 08:58:34;;;;;;;10.90;7.68;;;11.20;78.70;;;;;;5073442;28;20089;-90
2022/12/21 09:01:00;;;;;;;9.73;6.80;;;11.20;78.70;;;;;;5056712;28;20096;-90
2022/12/21 09:03:26;;;;;;;9.82;7.10;;;11.20;78.70;;;;;;5040233;28;20032;-88
2022/12/21 09:05:54;;;;;;;8.75;6.60;;;11.20;78.70;;;;;;5073491;28;20020;-90
2022/12/21 09:08:20;;;;;;;8.52;6.40;;;11.20;78.70;;;;;;5074555;28;20040;-89
2022/12/21 09:10:45;;;;;;;9.80;6.75;;;11.20;78.70;;;;;;5074156;28;20021;-90
2022/12/21 09:13:11;;;;;;;8.30;6.15;;;11.20;78.70;;;;;;5075004;28;20028;-87
2022/12/21 09:15:41;;;;;;;8.65;6.70;;;11.20;78.70;;;;;;5049352;28;20040;-89
2022/12/21 09:18:08;;;;;;;9.27;6.80;;;11.10;78.60;;;;;;5040833;28;20040;-88
2022/12/21 09:20:34;;;;;;;9.05;6.78;;;11.20;78.70;;;;;;5074674;28;20107;-91
2022/12/21 09:23:00;;;;;;;10.27;7.03;;;11.20;78.70;;;;;;5074481;28;20029;-87
2022/12/21 09:25:26;;;;;;;8.93;6.45;;;11.20;78.60;;;;;;5073982;28;20059;-88
2022/12/21 09:27:52;;;;;;;8.43;6.18;;;11.20;78.60;;;;;;5072771;28;20076;-88
2022/12/21 09:30:17;;;;;;;9.02;6.68;;;11.20;78.70;;;;;;5073767;28;20036;-89
2022/12/21 09:32:43;;;;;;;8.85;6.55;;;11.20;78.70;;;;;;5039772;28;20029;-88
2022/12/21 09:35:10;;;;;;;9.20;6.20;;;11.20;78.70;;;;;;5072954;28;20481;-85
2022/12/21 09:37:36;;;;;;;8.90;6.10;;;11.20;78.60;;;;;;5056525;28;20029;-87
2022/12/21 09:40:04;;;;;;;8.82;5.88;;;11.20;78.60;;;;;;5041542;28;20052;-88
2022/12/21 09:42:54;;;;;;;8.73;6.47;;;11.20;78.70;;;;;;5076881;28;20036;-87
2022/12/21 09:45:39;;;;;;;7.70;5.78;;;11.20;78.70;;;;;;5060316;28;20025;-88
2022/12/21 09:48:11;;;;;;;8.05;5.97;;;11.20;78.70;;;;;;5077168;28;20033;-86
2022/12/21 09:51:01;;;;;;;8.98;6.30;;;11.20;78.60;;;;;;5060139;28;20488;-88
2022/12/21 09:53:37;;;;;;;7.90;6.22;;;11.20;78.70;;;;;;5059597;28;20108;-89
2022/12/21 09:56:04;;;;;;;7.65;5.88;;;11.20;78.70;;;;;;5077367;28;20469;-86
2022/12/21 09:58:45;;;;;;;8.60;5.70;;;11.20;78.70;;;;;;5077135;28;20029;-86
2022/12/21 10:01:33;;;;;;;9.30;6.18;;;11.20;78.80;;;;;;5060027;28;20024;-85
2022/12/21 10:04:10;;;;;;;8.25;6.22;;;11.20;78.70;;;;;;5059945;28;20077;-86
2022/12/21 10:07:23;;;;;;;8.15;5.78;;;11.20;78.70;;;;;;5076117;28;20029;-85
2022/12/21 10:10:26;;;;;;;7.95;5.32;;;11.20;78.70;;;;;;5016055;28;20040;-87
2022/12/21 10:12:51;;;;;;;8.52;6.22;;;11.20;78.70;;;;;;4999446;28;20040;-84
2022/12/21 10:15:23;;;;;;;6.88;5.07;;;11.20;78.70;;;;;;5029352;28;20452;-85
2022/12/21 10:18:07;;;;;;;6.90;5.38;;;11.20;78.80;;;;;;5059643;28;20035;-86
2022/12/21 10:20:46;;;;;;;7.20;5.32;;;11.20;78.80;;;;;;5076190;28;20049;-85
2022/12/21 10:23:25;;;;;;;6.85;5.18;;;11.20;78.80;;;;;;5077477;28;20496;-87
2022/12/21 10:25:57;;;;;;;7.10;5.53;;;11.20;79.30;;;;;;5076268;28;20116;-87
2022/12/21 10:28:35;;;;;;;8.93;6.38;;;11.20;78.80;;;;;;5059280;28;20498;-87
2022/12/21 10:31:09;;;;;;;7.35;4.90;;;11.20;78.80;;;;;;5076009;28;20040;-87
2022/12/21 10:33:40;;;;;;;8.15;5.75;;;11.20;78.90;;;;;;5077302;28;20079;-86
2022/12/21 10:36:14;;;;;;;7.40;5.32;;;11.30;78.90;;;;;;5059206;28;20058;-87
2022/12/21 10:38:39;;;;;;;7.32;5.40;;;11.20;78.80;;;;;;5075949;28;20033;-86
2022/12/21 10:41:15;;;;;;;7.00;5.40;;;11.30;78.80;;;;;;5042142;28;20036;-87
2022/12/21 10:43:42;;;;;;;7.60;5.65;;;11.30;78.80;;;;;;5075484;28;20021;-86
2022/12/21 10:46:08;;;;;;;6.68;4.80;;;11.30;78.70;;;;;;5058850;28;20036;-88
2022/12/21 10:48:34;;;;;;;7.53;5.20;;;11.30;78.70;;;;;;5075473;28;20070;-87
2022/12/21 10:51:27;;;;;;;7.40;5.53;;;11.30;78.80;;;;;;5058421;28;20515;-88
2022/12/21 10:54:04;;;;;;;7.28;5.40;;;11.30;78.90;;;;;;5068804;28;20075;-87
2022/12/21 10:56:34;;;;;;;7.70;5.40;;;11.30;78.80;;;;;;5042227;28;20032;-87
2022/12/21 10:59:18;;;;;;;7.35;5.18;;;11.30;78.70;;;;;;5058542;28;20059;-85
2022/12/21 11:01:44;;;;;;;7.25;5.30;;;11.30;78.80;;;;;;5076290;28;20112;-87
2022/12/21 11:04:31;;;;;;;7.25;5.55;;;11.30;78.70;;;;;;5042710;28;20423;-88
2022/12/21 11:07:20;;;;;;;8.05;5.13;;;11.30;78.90;;;;;;5059276;28;20103;-87
2022/12/21 11:09:55;;;;;;;7.05;5.00;;;11.30;78.80;;;;;;5058421;28;20039;-87
2022/12/21 11:12:24;;;;;;;8.18;5.40;;;11.30;78.80;;;;;;5075931;28;20078;-87
2022/12/21 11:14:51;;;;;;;6.88;5.30;;;11.30;78.90;;;;;;5058427;28;20127;-87
2022/12/21 11:17:31;;;;;;;6.28;4.55;;;11.30;78.90;;;;;;5058817;28;20024;-87
2022/12/21 11:20:13;;;;;;;7.60;5.60;;;11.30;78.90;;;;;;5059611;28;20085;-86
2022/12/21 11:22:43;;;;;;;6.40;4.72;;;11.30;78.90;;;;;;5058893;28;20048;-87
2022/12/21 11:25:16;;;;;;;6.50;4.88;;;11.30;78.90;;;;;;5058352;28;20330;-87
2022/12/21 11:27:45;;;;;;;7.05;5.50;;;11.30;78.90;;;;;;5058212;28;20040;-85
2022/12/21 11:30:25;;;;;;;7.75;5.45;;;11.30;78.90;;;;;;5058385;28;20028;-86
2022/12/21 11:32:54;;;;;;;7.05;5.40;;;11.30;78.90;;;;;;5041949;28;20033;-86
2022/12/21 11:35:29;;;;;;;7.53;5.45;;;11.30;78.90;;;;;;5058532;28;20024;-86
2022/12/21 11:38:16;;;;;;;8.32;6.05;;;11.30;78.90;;;;;;5058033;28;20044;-86
2022/12/21 11:40:56;;;;;;;8.10;5.22;;;11.40;79.00;;;;;;5057373;28;20127;-86
2022/12/21 11:43:22;;;;;;;8.20;5.88;;;11.40;79.00;;;;;;5058089;28;20031;-87
2022/12/21 11:46:10;;;;;;;7.72;5.30;;;11.40;78.90;;;;;;5041221;28;20040;-86
2022/12/21 11:49:10;;;;;;;7.97;5.80;;;11.40;79.00;;;;;;5057722;28;20490;-86
2022/12/21 11:51:53;;;;;;;8.40;6.03;;;11.30;79.00;;;;;;5074320;28;20029;-86
2022/12/21 11:54:34;;;;;;;7.65;5.50;;;11.30;79.00;;;;;;5041908;28;20036;-86
2022/12/21 11:57:09;;;;;;;7.85;6.00;;;11.30;79.00;;;;;;5074931;28;20032;-86
2022/12/21 12:00:01;;;;;;;9.02;6.45;;;11.40;79.10;;;;;;5073918;28;20049;-86
2022/12/21 12:02:57;;;;;;;8.45;6.38;;;11.40;79.10;;;;;;5075674;28;20033;-86
2022/12/21 12:05:41;;;;;;;7.40;5.78;;;11.40;79.10;;;;;;5075897;28;20111;-86
2022/12/21 12:08:19;;;;;;;8.25;6.38;;;11.40;79.10;;;;;;5076417;28;20032;-85
2022/12/21 12:10:45;;;;;;;9.27;6.80;;;11.30;79.00;;;;;;5057911;28;20397;-86
2022/12/21 12:13:29;;;;;;;8.27;5.97;;;11.40;79.10;;;;;;5074448;28;20027;-86
2022/12/21 12:15:58;;;;;;;7.93;5.75;;;11.40;79.20;;;;;;5073957;28;20063;-85
2022/12/21 12:18:26;;;;;;;8.45;5.65;;;11.40;79.10;;;;;;5056823;28;20055;-85
2022/12/21 12:21:05;;;;;;;9.27;6.95;;;11.40;79.10;;;;;;5057934;28;20051;-85
2022/12/21 12:24:18;;;;;;;8.85;6.25;;;11.40;79.10;;;;;;5074975;28;20082;-84
2022/12/21 12:27:22;;;;;;;8.05;6.35;;;11.40;79.10;;;;;;5073239;28;20037;-85
2022/12/21 12:30:06;;;;;;;7.93;6.22;;;11.40;79.10;;;;;;5073571;28;20039;-85
2022/12/21 12:32:45;;;;;;;7.53;5.82;;;11.40;79.00;;;;;;5074614;28;20035;-85
2022/12/21 12:35:38;;;;;;;9.13;6.25;;;11.40;79.00;;;;;;5073774;28;20454;-85
2022/12/21 12:38:37;;;;;;;7.47;5.40;;;11.40;79.10;;;;;;5073973;28;20028;-85
2022/12/21 12:41:27;;;;;;;7.15;5.25;;;11.50;79.10;;;;;;5056507;28;20029;-86
2022/12/21 12:44:37;;;;;;;8.73;6.15;;;11.50;79.10;;;;;;5075069;28;20030;-85
2022/12/21 12:47:25;;;;;;;7.43;5.65;;;11.50;79.10;;;;;;5034375;28;20063;-86
2022/12/21 12:50:06;;;;;;;6.38;4.78;;;11.50;79.00;;;;;;5056487;28;20040;-86
2022/12/21 12:52:47;;;;;;;7.57;5.72;;;11.50;79.10;;;;;;5074330;28;20034;-85
2022/12/21 12:55:19;;;;;;;7.63;5.40;;;11.50;79.10;;;;;;5074494;28;20060;-84
2022/12/21 12:58:00;;;;;;;8.30;5.97;;;11.50;79.00;;;;;;5073691;28;20032;-85
2022/12/21 13:00:29;;;;;;;8.27;5.72;;;11.50;79.00;;;;;;5073609;28;20036;-84
2022/12/21 13:03:25;;;;;;;7.93;5.65;;;11.50;79.00;;;;;;5073600;28;20025;-85
2022/12/21 13:06:22;;;;;;;7.15;5.60;;;11.50;79.10;;;;;;5056659;28;20104;-86
2022/12/21 13:09:03;;;;;;;7.47;5.22;;;11.50;79.00;;;;;;5041067;28;20059;-86
2022/12/21 13:11:52;;;;;;;8.55;5.97;;;11.50;79.00;;;;;;5057342;28;20105;-83
2022/12/21 13:14:34;;;;;;;7.72;5.53;;;11.50;79.00;;;;;;5058005;28;20354;-84
2022/12/21 13:17:04;;;;;;;9.00;5.93;;;11.60;79.00;;;;;;5063285;28;20105;-84
2022/12/21 13:19:32;;;;;;;7.35;5.82;;;11.60;78.90;;;;;;5079835;28;20537;-85
2022/12/21 13:22:02;;;;;;;7.93;5.63;;;11.60;79.00;;;;;;5046811;28;20462;-85
2022/12/21 13:24:45;;;;;;;8.07;6.10;;;11.60;78.90;;;;;;5080096;28;20074;-85
2022/12/21 13:27:28;;;;;;;6.72;5.20;;;11.60;78.90;;;;;;5061054;28;20055;-85